Latest Weather Observations for Warwick

IDQ60801

Issued at 8:35 pm EST Thursday 28 August 2014 (issued every 30 minutes, with the page automatically refreshed every 10 minutes)

About weather observations | Map of weather stations | Latest weather observations for QLD | Other Formats
Station Details ID: 041525 Name: WARWICK Lat: -28.21 Lon: 152.10 Height: 475.4 m
Data from the previous 72 hours. | See also: Recent months at Warwick
Date/Time
EST
Temp
°C
App
Temp
°C
Dew
Point
Rel
Hum
%
Delta-T
°C
Wind Press
QNH
hPa
Press
MSL
hPa
Rain
since 9 am
mm
Dir
 
Spd
km/h
Gust
km/h
Spd
kts
Gust
kts
28/08:30pm 10.7 9.5 7.9 83 1.4 E 4 7 2 4 1022.5 1022.4 0.0
28/08:00pm 10.6 9.7 7.8 83 1.4 NE 2 9 1 5 1022.4 1022.3 0.0
28/07:30pm 10.7 10.3 8.3 85 1.2 CALM 0 0 0 0 1022.2 1022.1 0.0
28/07:00pm 11.7 9.6 8.3 79 1.7 E 9 15 5 8 1021.8 1021.7 0.0
28/06:30pm 12.8 10.4 8.7 76 2.1 ESE 11 19 6 10 1021.5 1021.4 0.0
28/06:00pm 13.7 10.1 8.2 69 2.8 SE 17 28 9 15 1021.1 1021.0 0.0
28/05:30pm 14.7 13.1 8.7 67 3.1 SE 7 13 4 7 1020.4 1020.3 0.0
28/05:00pm 16.2 14.1 8.3 59 4.1 ESE 9 17 5 9 1020.1 1020.0 0.0
28/04:30pm 17.1 14.2 8.1 55 4.7 ESE 13 22 7 12 1019.9 1019.8 0.0
28/04:00pm 16.5 11.1 6.5 51 5.0 SSE 24 35 13 19 1019.6 1019.4 0.0
28/03:30pm 17.3 12.2 6.1 47 5.6 S 22 32 12 17 1019.5 1019.3 0.0
28/03:00pm 19.0 16.0 7.5 47 6.0 SSE 13 24 7 13 1019.1 1019.0 0.0
28/02:30pm 17.7 13.2 6.9 49 5.5 SSE 20 35 11 19 1019.0 1018.9 0.0
28/02:00pm 17.0 11.6 6.5 50 5.3 SSE 24 41 13 22 1018.9 1018.8 0.0
28/01:30pm 17.4 11.1 5.5 45 5.9 SE 28 39 15 21 1018.7 1018.6 0.0
28/01:00pm 17.8 12.7 7.5 51 5.3 SSE 24 35 13 19 1018.7 1018.6 0.0
28/12:30pm 17.3 12.1 7.4 52 5.1 SE 24 37 13 20 1018.9 1018.8 0.0
28/12:00pm 17.2 10.4 7.0 51 5.2 SSE 32 50 17 27 1018.9 1018.8 0.0
28/11:47am 17.6 11.0 7.8 52 5.1 SSE 32 52 17 28 1019.0 1018.9 0.0
28/11:30am 16.6 11.5 7.6 55 4.6 SSE 24 41 13 22 1019.2 1019.1 0.0
28/11:00am 15.6 9.8 7.8 59 4.0 SSE 28 46 15 25 1019.2 1019.1 0.0
28/10:30am 15.2 9.0 8.0 62 3.7 SSE 30 50 16 27 1019.1 1019.0 0.0
28/10:00am 15.5 9.0 8.3 62 3.7 SE 32 52 17 28 1018.8 1018.7 0.0
28/09:30am 15.5 10.0 9.2 66 3.3 SSE 28 46 15 25 1018.7 1018.6 0.0
28/09:16am 14.3 8.7 8.9 70 2.8 SE 28 46 15 25 1018.6 1018.5 0.0
28/09:00am 14.4 8.9 9.2 71 2.7 SSE 28 44 15 24 1018.5 1018.4 15.4
28/08:30am 14.3 10.1 9.8 74 2.4 SE 22 35 12 19 1018.2 1018.1 15.4
28/08:00am 13.4 8.0 9.4 77 2.1 SSE 28 43 15 23 1017.9 1017.7 15.4
28/07:30am 13.0 8.3 9.1 77 2.0 SSE 24 37 13 20 1017.4 1017.2 15.4
28/07:00am 12.5 7.8 9.4 81 1.6 SSE 24 35 13 19 1017.5 1017.3 15.4
28/06:30am 12.3 8.6 9.4 82 1.5 SSE 19 26 10 14 1017.1 1017.0 15.4
28/06:00am 12.1 9.1 9.2 82 1.5 SSE 15 22 8 12 1016.8 1016.7 15.4
28/05:30am 11.7 9.1 9.2 85 1.3 SSE 13 22 7 12 1016.4 1016.3 15.4
28/05:00am 11.8 9.1 9.1 83 1.4 S 13 20 7 11 1016.1 1015.9 15.4
28/04:30am 11.6 9.4 9.5 87 1.1 S 11 15 6 8 1015.8 1015.6 15.4
28/04:00am 11.1 11.1 9.9 92 0.6 CALM 0 9 0 5 1015.7 1015.5 15.4
28/03:30am 11.2 10.0 9.7 90 0.8 SSE 6 11 3 6 1015.7 1015.5 15.4
28/03:00am 11.2 9.8 9.7 90 0.8 SSE 7 13 4 7 1015.9 1015.7 15.2
28/02:30am 11.1 9.3 9.3 89 0.9 SSE 9 15 5 8 1016.0 1015.8 15.2
28/02:00am 10.7 8.9 9.3 91 0.7 SE 9 17 5 9 1015.9 1015.7 15.2
28/01:30am - - 9.3 - - SE 13 20 7 11 - 1016.3 -
28/01:00am 11.1 6.7 9.1 87 1.0 SSE 22 35 12 19 1015.8 1015.6 15.2
28/12:30am 11.2 8.3 9.5 89 0.9 SSE 15 28 8 15 1015.8 1015.6 15.2
28/12:00am 11.1 7.4 9.3 89 0.9 S 19 30 10 16 1015.6 1015.4 15.2
 
Date/Time
EST
Temp
°C
App
Temp
°C
Dew
Point
Rel
Hum
%
Delta-T
°C
Wind Press
QNH
hPa
Press
MSL
hPa
Rain
since 9 am
mm
Dir
 
Spd
km/h
Gust
km/h
Spd
kts
Gust
kts
27/11:30pm 11.2 7.4 9.0 86 1.1 S 19 37 10 20 1015.7 1015.5 15.2
27/11:00pm 10.2 6.7 8.6 90 0.8 SSW 17 24 9 13 1015.7 1015.5 15.2
27/10:30pm 9.6 6.9 8.8 95 0.4 WSW 13 17 7 9 1015.8 1015.6 14.8
27/10:00pm 9.6 7.2 8.6 93 0.5 WSW 11 17 6 9 1016.1 1015.9 12.8
27/09:30pm 9.7 8.4 9.1 96 0.3 WSW 6 13 3 7 1016.1 1015.9 11.0
27/09:00pm 9.9 8.0 9.1 95 0.4 S 9 15 5 8 1016.6 1016.5 8.6
27/08:30pm 9.9 7.1 8.5 91 0.7 SE 13 24 7 13 1016.8 1016.7 5.8
27/08:00pm 10.5 6.6 7.2 80 1.6 S 17 33 9 18 1016.4 1016.3 5.6
27/07:30pm 10.5 5.6 6.8 78 1.8 SSW 22 30 12 16 1016.4 1016.3 5.6
27/07:00pm 10.8 6.7 6.0 72 2.3 S 17 28 9 15 1016.5 1016.4 5.6
27/06:30pm 11.2 6.9 5.3 67 2.8 SSE 17 24 9 13 1016.6 1016.5 5.6
27/06:00pm 11.4 6.2 5.5 67 2.8 SSE 22 32 12 17 1016.4 1016.3 5.6
27/05:30pm 12.0 9.6 7.1 72 2.4 S 9 13 5 7 1016.2 1016.1 5.6
27/05:00pm 12.7 8.1 6.6 66 3.0 SSE 20 30 11 16 1016.1 1015.9 5.6
27/04:30pm 13.6 11.2 7.0 64 3.3 SSW 9 22 5 12 1015.8 1015.6 5.6
27/04:00pm 11.6 9.5 8.4 81 1.6 W 9 15 5 8 1015.7 1015.5 5.6
27/03:30pm 10.3 7.1 8.3 87 1.0 W 15 20 8 11 1015.9 1015.7 5.6
27/03:00pm 10.4 6.2 8.4 87 1.0 W 20 32 11 17 1015.5 1015.3 5.0
27/02:30pm 10.1 6.6 8.7 91 0.7 W 17 26 9 14 1015.4 1015.2 4.4
27/02:00pm 11.1 7.1 9.1 87 1.0 SW 20 26 11 14 1015.2 1015.0 1.0
27/01:30pm 14.9 9.5 6.2 56 4.3 SW 24 33 13 18 1014.7 1014.6 0.0
27/01:00pm 17.4 13.1 6.8 49 5.4 SE 19 33 10 18 1014.3 1014.1 0.0
27/12:30pm 18.3 14.4 7.0 47 5.8 SE 17 26 9 14 1014.7 1014.6 0.0
27/12:00pm 17.9 14.0 7.0 49 5.6 SSE 17 28 9 15 1015.3 1015.1 0.0
27/11:30am 18.4 14.8 6.6 46 6.0 SSE 15 24 8 13 1016.0 1015.8 0.0
27/11:00am 17.6 14.4 7.0 50 5.4 SSE 13 24 7 13 1016.4 1016.3 0.0
27/10:30am 17.0 13.1 7.0 51 5.1 SSE 17 35 9 19 1016.6 1016.5 0.0
27/10:00am 16.3 12.8 7.0 54 4.7 S 15 24 8 13 1016.9 1016.8 0.0
27/09:30am 15.0 12.4 7.7 61 3.7 S 11 17 6 9 1017.1 1017.0 0.0
27/09:00am 13.8 11.8 8.5 70 2.7 SW 9 13 5 7 1017.1 1017.0 0.0
27/08:30am 12.4 10.9 8.3 76 2.1 SSW 6 11 3 6 1017.1 1017.0 0.0
27/08:00am 10.7 9.0 8.5 86 1.1 WSW 7 11 4 6 1017.0 1016.9 0.0
27/07:30am 9.9 9.5 8.1 88 0.9 CALM 0 0 0 0 1016.5 1016.4 0.0
27/07:00am 8.6 8.0 7.4 92 0.6 CALM 0 0 0 0 1016.1 1015.9 0.0
27/06:30am 7.5 6.8 7.1 97 0.2 CALM 0 0 0 0 1016.0 1015.8 0.0
27/06:00am 7.8 6.7 7.0 95 0.4 SE 2 7 1 4 1015.8 1015.6 0.0
27/05:30am 8.1 6.7 7.3 95 0.4 E 4 7 2 4 1015.6 1015.4 0.0
27/05:00am 7.9 6.1 7.1 95 0.4 NE 6 7 3 4 1015.6 1015.4 0.0
27/04:30am 7.2 6.5 6.8 97 0.2 CALM 0 0 0 0 1015.5 1015.3 0.0
27/04:00am 7.3 6.5 6.4 94 0.4 CALM 0 6 0 3 1015.6 1015.4 0.0
27/03:30am 8.5 6.6 7.5 93 0.5 NNE 7 9 4 5 1015.8 1015.6 0.0
27/03:00am 8.1 5.4 7.3 95 0.4 NE 11 13 6 7 1015.9 1015.7 0.0
27/02:30am 9.2 6.7 8.0 92 0.6 ENE 11 15 6 8 1016.1 1015.9 0.0
27/02:00am 9.8 8.0 7.8 87 1.0 NE 7 11 4 6 1016.7 1016.6 0.0
27/01:30am - - 8.1 - - SSE 11 17 6 9 - 1020.1 0.0
27/01:00am 10.7 8.7 8.7 87 1.0 WSW 9 11 5 6 1017.6 1017.4 0.0
27/12:30am 11.1 9.0 8.3 83 1.4 W 9 15 5 8 1018.1 1018.0 0.0
27/12:00am 11.3 8.3 7.5 77 1.9 W 13 20 7 11 1018.1 1018.0 0.0
 
Date/Time
EST
Temp
°C
App
Temp
°C
Dew
Point
Rel
Hum
%
Delta-T
°C
Wind Press
QNH
hPa
Press
MSL
hPa
Rain
since 9 am
mm
Dir
 
Spd
km/h
Gust
km/h
Spd
kts
Gust
kts
26/11:30pm 12.5 9.8 9.0 79 1.8 W 13 22 7 12 1018.2 1018.1 0.0
26/11:00pm 12.5 10.5 10.0 85 1.3 WSW 11 17 6 9 1018.3 1018.2 0.0
26/10:30pm 11.6 10.4 9.7 88 1.0 S 6 9 3 5 1017.8 1017.6 0.0
26/10:00pm 11.2 10.7 9.5 89 0.9 SE 2 7 1 4 1017.8 1017.6 0.0
26/09:30pm 11.5 10.3 9.6 88 1.0 ESE 6 9 3 5 1017.9 1017.7 0.0
26/09:00pm 12.2 9.7 9.7 85 1.3 SSE 13 17 7 9 1017.8 1017.6 0.0
26/08:30pm 12.4 9.1 9.5 82 1.5 SSE 17 24 9 13 1017.9 1017.7 0.0
26/08:00pm 12.5 9.9 9.4 81 1.6 S 13 20 7 11 1017.9 1017.7 0.0
26/07:30pm 12.8 9.2 9.7 81 1.6 SSE 19 28 10 15 1017.6 1017.4 0.0
26/07:00pm 13.5 9.5 10.3 81 1.7 SSE 22 30 12 16 1017.0 1016.9 0.0
26/06:30pm 14.9 11.8 10.2 73 2.5 SSE 17 30 9 16 1016.7 1016.6 0.0
26/06:00pm 15.6 12.3 9.6 67 3.2 SE 17 22 9 12 1016.5 1016.4 0.0
26/05:30pm 16.4 13.4 9.4 63 3.7 SE 15 22 8 12 1016.2 1016.1 0.0
26/05:00pm 17.9 15.6 9.1 56 4.7 ESE 11 20 6 11 1015.8 1015.6 0.0
26/04:30pm 18.8 15.6 7.0 46 6.1 E 13 17 7 9 1015.3 1015.1 0.0
26/04:00pm 19.0 15.8 7.0 45 6.2 ENE 13 19 7 10 1015.4 1015.2 0.0
26/03:30pm 18.8 15.1 6.4 44 6.3 ENE 15 26 8 14 1015.1 1014.9 0.0
26/03:00pm 20.2 17.0 6.9 42 6.9 ESE 13 24 7 13 1015.1 1014.9 0.0
26/02:30pm 19.7 16.2 7.2 44 6.5 SE 15 24 8 13 1015.3 1015.1 0.0
26/02:00pm 19.1 15.3 7.6 47 6.0 SE 17 28 9 15 1015.5 1015.3 0.0
26/01:30pm 19.8 16.1 8.1 46 6.2 SE 17 28 9 15 1016.0 1015.8 0.0
26/01:00pm 18.9 14.9 8.1 49 5.7 SE 19 33 10 18 1016.4 1016.3 0.0
26/12:30pm 19.1 15.1 8.1 49 5.8 SE 19 30 10 16 1017.0 1016.9 0.0
26/12:00pm 18.1 13.9 8.4 53 5.1 SSE 20 30 11 16 1017.6 1017.4 0.0
26/11:30am 17.4 13.2 8.4 55 4.7 SE 20 30 11 16 1018.2 1018.1 0.0
26/11:00am 16.9 12.6 9.2 60 4.1 SSE 22 33 12 18 1018.7 1018.6 0.0
26/10:30am 16.6 12.2 9.0 61 4.0 SE 22 32 12 17 1019.0 1018.9 0.0
26/10:00am 16.6 12.3 9.5 63 3.8 SSE 22 35 12 19 1019.2 1019.1 0.0
26/09:30am 14.9 11.2 9.4 69 2.9 SE 19 28 10 15 1019.3 1019.2 0.0
26/09:00am 14.1 10.7 9.3 73 2.5 SE 17 28 9 15 1019.3 1019.2 0.0
26/08:30am 13.9 10.3 9.7 76 2.2 SE 19 26 10 14 1019.5 1019.3 0.0
26/08:00am 12.7 10.2 9.8 82 1.5 SSE 13 22 7 12 1019.3 1019.2 0.0
26/07:30am 10.6 10.1 9.2 91 0.7 ESE 2 6 1 3 1019.2 1019.1 0.0
26/07:00am 9.8 9.5 8.6 92 0.6 CALM 0 0 0 0 1019.0 1018.9 0.0
26/06:30am 9.1 7.6 8.3 95 0.4 ESE 6 13 3 7 1018.8 1018.7 0.0
26/06:00am 9.3 8.5 8.3 93 0.5 SE 2 9 1 5 1018.6 1018.5 0.0
26/05:30am 9.6 9.0 8.8 95 0.4 ENE 2 9 1 5 1018.2 1018.1 0.0
26/05:00am 9.1 8.7 8.3 95 0.4 CALM 0 0 0 0 1017.9 1017.7 0.0
26/04:30am 8.9 8.6 8.7 99 0.1 CALM 0 0 0 0 1017.7 1017.5 0.0
26/04:00am 9.0 8.6 8.2 95 0.4 CALM 0 0 0 0 1017.8 1017.6 0.0
26/03:30am 9.2 8.9 8.8 97 0.2 CALM 0 0 0 0 1017.9 1017.7 0.0
26/03:00am 9.8 8.8 8.8 93 0.5 ENE 4 7 2 4 1018.1 1018.0 0.0
26/02:30am 9.5 8.8 8.7 95 0.4 E 2 7 1 4 1018.4 1018.3 0.0
26/02:00am 9.9 9.0 9.1 95 0.4 ESE 4 11 2 6 1018.8 1018.7 0.0
26/01:30am 9.8 9.3 9.2 96 0.3 SSE 2 7 1 4 1019.3 1019.2 0.0
26/01:00am 10.3 10.2 9.3 93 0.5 CALM 0 4 0 2 1019.6 1019.4 0.0
26/12:30am 10.2 10.1 9.4 95 0.4 CALM 0 0 0 0 1019.9 1019.8 0.0
26/12:00am 10.4 10.2 9.0 91 0.7 CALM 0 0 0 0 1020.1 1020.0 0.0
 
Date/Time
EST
Temp
°C
App
Temp
°C
Dew
Point
Rel
Hum
%
Delta-T
°C
Wind Press
QNH
hPa
Press
MSL
hPa
Rain
since 9 am
mm
Dir
 
Spd
km/h
Gust
km/h
Spd
kts
Gust
kts
25/11:30pm 10.8 10.7 9.4 91 0.7 CALM 0 0 0 0 1020.2 1020.1 0.0
25/11:00pm 11.3 11.1 9.1 86 1.1 CALM 0 0 0 0 1020.3 1020.2 0.0
25/10:30pm 11.6 11.5 9.5 87 1.1 CALM 0 6 0 3 1020.4 1020.3 0.0
25/10:00pm 11.6 11.5 9.5 87 1.1 CALM 0 6 0 3 1020.6 1020.5 0.0
25/09:30pm 11.5 10.7 9.6 88 1.0 S 4 7 2 4 1020.9 1020.8 0.0
25/09:00pm 12.0 11.6 9.9 87 1.1 SE 2 7 1 4 1020.8 1020.7 0.0

Other Formats:

Comma delimited format used in spreadsheet applications
http://www.bom.gov.au/fwo/IDQ60801/IDQ60801.94555.axf

JavaScript Object Notation format (JSON) in row-major order
http://www.bom.gov.au/fwo/IDQ60801/IDQ60801.94555.json